Time;durP1;ratioP1;P1;durP2;ratioP2;P2;SDS_P1;SDS_P2;PMS_P1;PMS_P2;Temp;Humidity;BMP_temperature;BMP_pressure;BME280_temperature;BME280_humidity;BME280_pressure;Samples;Min_cycle;Max_cycle;Signal;HPM_P1;HPM_P2
2022/04/08 00:04:07;;;;;;;3.03;0.68;;;9.90;96.60;;;;;;10361173;28;20053;-62
2022/04/08 00:09:08;;;;;;;2.13;0.52;;;9.70;96.50;;;;;;10362151;28;20022;-61
2022/04/08 00:14:09;;;;;;;3.67;0.38;;;9.70;96.50;;;;;;10377433;28;20034;-61
2022/04/08 00:19:10;;;;;;;3.17;0.50;;;9.70;96.50;;;;;;10368779;28;20015;-64
2022/04/08 00:24:11;;;;;;;4.60;0.60;;;9.70;96.50;;;;;;10370269;28;20056;-61
2022/04/08 00:29:15;;;;;;;3.13;0.60;;;9.70;96.50;;;;;;10369074;28;20022;-59
2022/04/08 00:34:16;;;;;;;3.80;0.40;;;9.60;96.60;;;;;;10362471;28;20030;-61
2022/04/08 00:39:17;;;;;;;2.83;0.40;;;9.60;96.60;;;;;;10376644;28;20115;-64
2022/04/08 00:44:17;;;;;;;2.33;0.50;;;9.60;96.60;;;;;;10365117;28;20144;-64
2022/04/08 00:49:18;;;;;;;2.67;0.30;;;9.60;96.60;;;;;;10356787;28;20113;-61
2022/04/08 00:54:20;;;;;;;2.08;0.50;;;9.50;96.60;;;;;;10369540;28;20400;-61
2022/04/08 00:59:21;;;;;;;1.85;0.40;;;9.60;96.60;;;;;;10347781;28;20034;-68
2022/04/08 01:04:23;;;;;;;3.22;0.60;;;9.50;96.60;;;;;;10356847;28;20628;-68
2022/04/08 01:09:26;;;;;;;1.70;0.40;;;9.50;96.60;;;;;;10349568;28;20096;-61
2022/04/08 01:14:27;;;;;;;1.75;0.30;;;9.50;96.60;;;;;;10355661;28;20026;-60
2022/04/08 01:19:27;;;;;;;1.45;0.50;;;9.50;96.60;;;;;;10351886;28;20699;-58
2022/04/08 01:24:29;;;;;;;1.75;0.30;;;9.50;96.60;;;;;;10360177;28;20053;-65
2022/04/08 01:29:30;;;;;;;5.68;0.40;;;9.50;96.50;;;;;;10363582;28;20029;-60
2022/04/08 01:34:31;;;;;;;3.75;0.43;;;9.40;96.50;;;;;;10362921;28;20996;-64
2022/04/08 01:39:32;;;;;;;0.88;0.40;;;9.40;96.50;;;;;;10362805;28;20073;-65
2022/04/08 01:44:32;;;;;;;5.25;0.45;;;9.40;96.40;;;;;;10362371;28;20050;-62
2022/04/08 01:49:33;;;;;;;5.32;0.65;;;9.40;96.70;;;;;;10356570;28;20022;-66
2022/04/08 01:54:34;;;;;;;2.42;0.50;;;9.40;96.40;;;;;;10359722;28;20037;-65
2022/04/08 01:59:35;;;;;;;1.67;0.47;;;9.40;96.40;;;;;;10359199;28;20109;-66
2022/04/08 02:04:36;;;;;;;4.60;0.60;;;9.40;96.40;;;;;;10358975;28;20068;-66
2022/04/08 02:09:36;;;;;;;3.40;0.40;;;9.40;96.30;;;;;;10358903;28;20469;-66
2022/04/08 02:14:38;;;;;;;2.67;0.40;;;9.30;96.30;;;;;;10361447;28;20014;-66
2022/04/08 02:19:39;;;;;;;3.10;0.40;;;9.40;96.30;;;;;;10356613;28;20068;-64
2022/04/08 02:24:39;;;;;;;2.55;0.60;;;9.30;96.30;;;;;;10357770;28;20167;-62
2022/04/08 02:29:40;;;;;;;4.13;0.50;;;9.30;96.20;;;;;;10360603;28;20105;-64
2022/04/08 02:34:41;;;;;;;3.70;0.55;;;9.30;96.20;;;;;;10360691;28;20030;-59
2022/04/08 02:39:41;;;;;;;1.15;0.43;;;9.30;96.20;;;;;;10360857;28;20358;-60
2022/04/08 02:44:42;;;;;;;4.05;0.90;;;9.20;96.20;;;;;;10360780;28;20034;-65
2022/04/08 02:49:45;;;;;;;3.60;0.60;;;10.60;96.60;;;;;;10347519;28;20082;-64
2022/04/08 02:54:45;;;;;;;3.95;0.60;;;9.20;96.10;;;;;;10359751;28;20388;-65
2022/04/08 02:59:46;;;;;;;1.88;0.50;;;9.20;96.10;;;;;;10346784;28;20048;-66
2022/04/08 03:04:47;;;;;;;3.90;0.63;;;9.10;96.10;;;;;;10357047;28;20038;-66
2022/04/08 03:09:50;;;;;;;3.85;0.80;;;9.20;96.10;;;;;;10355847;28;20022;-66
2022/04/08 03:14:50;;;;;;;3.67;0.50;;;9.10;96.00;;;;;;10358640;28;20041;-64
2022/04/08 03:19:52;;;;;;;3.28;0.75;;;9.10;96.00;;;;;;10357183;28;20389;-66
2022/04/08 03:24:54;;;;;;;4.03;0.70;;;9.10;96.20;;;;;;10364436;28;20792;-66
2022/04/08 03:29:54;;;;;;;5.30;1.75;;;9.00;95.90;;;;;;10366938;28;20022;-62
2022/04/08 03:34:58;;;;;;;3.03;0.73;;;9.00;95.90;;;;;;10366209;28;20289;-59
2022/04/08 03:39:59;;;;;;;3.40;0.50;;;9.10;95.90;;;;;;10367023;28;20034;-60
2022/04/08 03:45:00;;;;;;;5.85;0.80;;;9.00;95.90;;;;;;10368967;28;20033;-62
2022/04/08 03:50:00;;;;;;;3.60;0.60;;;9.00;95.80;;;;;;10358437;28;20033;-60
2022/04/08 03:55:02;;;;;;;2.40;0.80;;;9.00;95.80;;;;;;10365589;28;20053;-64
2022/04/08 04:00:04;;;;;;;1.75;0.75;;;9.00;95.80;;;;;;10353784;28;20077;-61
2022/04/08 04:05:05;;;;;;;5.43;0.70;;;9.00;95.80;;;;;;10352930;28;20680;-65
2022/04/08 04:10:06;;;;;;;4.10;0.45;;;8.90;95.80;;;;;;10365679;28;20034;-58
2022/04/08 04:15:08;;;;;;;4.57;0.65;;;8.90;95.80;;;;;;10365365;28;20034;-63
2022/04/08 04:20:10;;;;;;;5.20;1.00;;;8.90;95.80;;;;;;10360450;28;20472;-63
2022/04/08 04:25:11;;;;;;;1.63;0.38;;;8.90;95.70;;;;;;10364706;28;20092;-66
2022/04/08 04:30:13;;;;;;;3.33;0.90;;;8.90;95.70;;;;;;10364197;28;20073;-65
2022/04/08 04:35:14;;;;;;;4.10;0.80;;;8.90;95.70;;;;;;10361201;28;20065;-63
2022/04/08 04:40:15;;;;;;;3.15;0.75;;;8.90;95.70;;;;;;10362552;28;20029;-66
2022/04/08 04:45:17;;;;;;;3.40;0.77;;;8.80;95.60;;;;;;10363983;28;20480;-64
2022/04/08 04:50:17;;;;;;;2.47;0.77;;;8.80;95.60;;;;;;10357784;28;20125;-62
2022/04/08 04:55:18;;;;;;;0.70;0.50;;;8.80;95.60;;;;;;10363519;28;20042;-65
2022/04/08 05:00:19;;;;;;;2.65;0.50;;;8.80;95.50;;;;;;10349758;28;20034;-67
2022/04/08 05:05:20;;;;;;;4.03;0.60;;;8.80;95.50;;;;;;10358019;28;20084;-64
2022/04/08 05:10:21;;;;;;;1.77;0.43;;;8.80;95.50;;;;;;10349111;28;20033;-66
2022/04/08 05:15:22;;;;;;;2.67;0.30;;;8.90;95.50;;;;;;10352863;28;20112;-66
2022/04/08 05:20:22;;;;;;;4.63;0.73;;;8.80;95.50;;;;;;10357853;28;20026;-66
2022/04/08 05:25:23;;;;;;;2.35;1.23;;;8.80;95.40;;;;;;10361370;28;20144;-64
2022/04/08 05:30:24;;;;;;;3.63;0.85;;;8.80;95.40;;;;;;10361214;28;20412;-67
2022/04/08 05:35:25;;;;;;;5.40;0.80;;;8.80;95.40;;;;;;10356141;28;20032;-67
2022/04/08 05:40:26;;;;;;;4.20;0.68;;;8.80;95.50;;;;;;10335856;28;20077;-63
2022/04/08 05:45:28;;;;;;;4.18;0.88;;;8.80;95.50;;;;;;10359588;28;20031;-60
2022/04/08 05:50:29;;;;;;;2.85;1.00;;;8.80;95.50;;;;;;10340016;28;20033;-64
2022/04/08 05:55:29;;;;;;;0.98;0.50;;;8.70;95.30;;;;;;10360703;28;20022;-59
2022/04/08 06:00:34;;;;;;;1.77;0.52;;;8.70;95.30;;;;;;10350545;28;20049;-59
2022/04/08 06:05:35;;;;;;;3.13;0.73;;;8.70;95.30;;;;;;10357741;28;20033;-63
2022/04/08 06:10:36;;;;;;;1.90;0.70;;;8.60;95.30;;;;;;10357676;28;20026;-59
2022/04/08 06:15:37;;;;;;;2.88;0.70;;;8.80;95.30;;;;;;10358885;28;20026;-60
2022/04/08 06:20:37;;;;;;;1.90;0.47;;;8.60;95.30;;;;;;10360052;28;20034;-63
2022/04/08 06:25:38;;;;;;;2.65;1.00;;;8.60;95.20;;;;;;10358094;28;20042;-60
2022/04/08 06:30:40;;;;;;;1.70;0.60;;;8.60;95.20;;;;;;10360516;28;20176;-65
2022/04/08 06:35:40;;;;;;;2.15;0.75;;;8.50;95.20;;;;;;10360698;28;20080;-61
2022/04/08 06:40:41;;;;;;;1.77;0.73;;;8.50;95.20;;;;;;10360104;28;20034;-60
2022/04/08 06:45:42;;;;;;;3.00;0.65;;;8.60;95.20;;;;;;10355345;28;20038;-64
2022/04/08 06:50:43;;;;;;;3.63;1.00;;;8.60;95.10;;;;;;10358178;28;20034;-57
2022/04/08 06:55:44;;;;;;;2.80;0.70;;;8.50;95.30;;;;;;10356660;28;20021;-59
2022/04/08 07:00:45;;;;;;;0.52;0.50;;;8.50;95.10;;;;;;10356901;28;20365;-66
2022/04/08 07:05:46;;;;;;;1.50;0.65;;;8.60;95.00;;;;;;10364528;28;20033;-61
2022/04/08 07:10:46;;;;;;;0.50;0.47;;;8.60;94.90;;;;;;10349779;28;20093;-64
2022/04/08 07:15:47;;;;;;;1.13;0.70;;;8.60;94.90;;;;;;10360785;28;20575;-64
2022/04/08 07:20:51;;;;;;;0.80;0.70;;;8.60;94.90;;;;;;10370282;28;21475;-67
2022/04/08 07:25:52;;;;;;;2.85;0.80;;;8.60;94.90;;;;;;10368528;28;20610;-67
2022/04/08 07:30:53;;;;;;;4.30;1.60;;;8.70;94.80;;;;;;10361357;28;20050;-69
2022/04/08 07:35:53;;;;;;;3.40;0.90;;;8.70;94.70;;;;;;10356502;28;20445;-67
2022/04/08 07:40:54;;;;;;;1.45;0.90;;;8.80;94.70;;;;;;10362350;28;20048;-70
2022/04/08 07:45:55;;;;;;;1.38;0.68;;;8.90;94.60;;;;;;10366603;28;20041;-71
2022/04/08 07:50:56;;;;;;;2.05;0.70;;;8.80;94.50;;;;;;10371632;28;20465;-69
2022/04/08 07:55:56;;;;;;;2.65;1.10;;;8.80;94.50;;;;;;10359132;28;20030;-69
2022/04/08 08:01:00;;;;;;;1.73;0.80;;;8.90;94.40;;;;;;10351802;28;20072;-66
2022/04/08 08:06:03;;;;;;;3.60;0.95;;;8.90;94.40;;;;;;10357742;28;20022;-69
2022/04/08 08:11:11;;;;;;;1.20;0.68;;;8.90;94.40;;;;;;10362474;28;20069;-66
2022/04/08 08:16:11;;;;;;;1.95;0.75;;;8.90;94.40;;;;;;10357512;28;20034;-70
2022/04/08 08:21:12;;;;;;;3.25;0.80;;;8.90;94.50;;;;;;10358884;28;20049;-69
2022/04/08 08:26:13;;;;;;;1.58;0.82;;;8.80;94.60;;;;;;10363643;28;20092;-66
2022/04/08 08:31:16;;;;;;;2.17;0.70;;;8.80;94.60;;;;;;10362539;28;20600;-61
2022/04/08 08:36:16;;;;;;;3.17;0.85;;;8.90;94.60;;;;;;10360226;28;20400;-65
2022/04/08 08:41:19;;;;;;;1.00;0.75;;;8.90;94.50;;;;;;10368245;28;20052;-68
2022/04/08 08:46:21;;;;;;;2.60;0.90;;;8.90;94.50;;;;;;10370633;28;20034;-67
2022/04/08 08:51:22;;;;;;;3.05;1.10;;;9.00;94.50;;;;;;10350902;28;20038;-69
2022/04/08 08:56:24;;;;;;;2.45;0.90;;;9.10;94.40;;;;;;10354491;28;20444;-69
2022/04/08 09:01:25;;;;;;;2.92;0.90;;;9.10;94.40;;;;;;10355901;28;20050;-69
2022/04/08 09:06:26;;;;;;;2.67;0.80;;;9.10;94.30;;;;;;10353463;28;20038;-66
2022/04/08 09:11:27;;;;;;;1.83;1.02;;;9.10;94.30;;;;;;10358819;28;20440;-66
2022/04/08 09:16:29;;;;;;;1.83;0.82;;;9.20;94.30;;;;;;10360748;28;20025;-69
2022/04/08 09:21:30;;;;;;;2.65;1.15;;;9.20;94.50;;;;;;10355848;28;20099;-67
2022/04/08 09:26:36;;;;;;;2.40;0.95;;;9.30;94.20;;;;;;10359554;28;20034;-63
2022/04/08 09:31:37;;;;;;;3.70;1.17;;;9.30;94.20;;;;;;10360449;28;20159;-64
2022/04/08 09:36:41;;;;;;;2.67;0.95;;;9.40;94.20;;;;;;10358865;28;20022;-67
2022/04/08 09:41:44;;;;;;;3.40;1.00;;;9.40;94.20;;;;;;10358374;28;20037;-68
2022/04/08 09:46:44;;;;;;;1.77;0.77;;;9.40;94.10;;;;;;10361295;28;20049;-69
2022/04/08 09:51:52;;;;;;;3.58;0.90;;;9.40;94.10;;;;;;10353435;28;20507;-67
2022/04/08 09:56:57;;;;;;;3.65;1.10;;;9.50;94.10;;;;;;10351057;28;20080;-68
2022/04/08 10:01:58;;;;;;;5.68;1.50;;;9.50;94.00;;;;;;10344469;28;20053;-65
2022/04/08 10:07:00;;;;;;;4.60;0.90;;;9.60;94.00;;;;;;10356360;28;20014;-69
2022/04/08 10:12:07;;;;;;;2.47;0.77;;;9.70;93.90;;;;;;10356003;28;20034;-65
2022/04/08 10:17:09;;;;;;;4.28;0.98;;;9.70;93.80;;;;;;10348449;28;20092;-69
2022/04/08 10:22:20;;;;;;;2.17;0.90;;;9.80;93.80;;;;;;10356842;28;21276;-68
2022/04/08 10:27:33;;;;;;;2.55;0.80;;;9.90;93.70;;;;;;10356845;28;20058;-67
2022/04/08 10:32:38;;;;;;;2.10;1.00;;;9.90;93.60;;;;;;10366542;28;20030;-72
2022/04/08 10:37:39;;;;;;;3.53;1.00;;;10.00;93.60;;;;;;10366163;28;20041;-70
2022/04/08 10:42:40;;;;;;;4.72;1.25;;;10.10;93.50;;;;;;10360930;28;20615;-71
2022/04/08 10:47:48;;;;;;;3.25;0.95;;;10.10;93.40;;;;;;10366103;28;20049;-70
2022/04/08 10:52:49;;;;;;;5.20;1.52;;;10.20;93.40;;;;;;10362636;28;20389;-71
2022/04/08 10:57:56;;;;;;;6.00;1.00;;;10.20;93.30;;;;;;10369400;28;20109;-71
2022/04/08 11:02:57;;;;;;;2.17;1.10;;;10.30;93.20;;;;;;10351129;28;20504;-66
2022/04/08 11:07:59;;;;;;;2.60;1.17;;;10.30;93.20;;;;;;10365904;28;20022;-71
2022/04/08 11:13:00;;;;;;;4.30;1.50;;;10.40;93.10;;;;;;10360080;28;20034;-68
2022/04/08 11:18:00;;;;;;;1.02;0.77;;;10.10;92.90;;;;;;10358969;28;20037;-58
2022/04/08 11:23:01;;;;;;;2.63;1.15;;;10.50;93.00;;;;;;10366908;28;20049;-69
2022/04/08 11:28:04;;;;;;;1.95;1.05;;;10.50;93.20;;;;;;10365420;28;20053;-70
2022/04/08 11:33:16;;;;;;;4.00;1.20;;;10.50;93.00;;;;;;10365341;28;20029;-72
2022/04/08 11:38:20;;;;;;;5.13;1.20;;;10.00;93.00;;;;;;10364033;28;20137;-64
2022/04/08 11:43:21;;;;;;;3.72;1.17;;;10.50;93.30;;;;;;10358299;28;20041;-59
2022/04/08 11:48:25;;;;;;;6.47;1.52;;;10.50;93.30;;;;;;10355477;28;20267;-58
2022/04/08 11:53:26;;;;;;;5.63;1.42;;;10.50;93.40;;;;;;10361207;28;20041;-57
2022/04/08 11:58:28;;;;;;;4.00;1.33;;;10.50;93.50;;;;;;10367717;28;20032;-72
2022/04/08 12:03:36;;;;;;;12.38;2.75;;;10.50;93.50;;;;;;10365181;28;20044;-78
2022/04/08 12:08:37;;;;;;;1.90;1.20;;;10.60;93.50;;;;;;10363384;28;20108;-72
2022/04/08 12:13:42;;;;;;;3.58;1.33;;;10.60;93.50;;;;;;10353010;28;20137;-76
2022/04/08 12:18:54;;;;;;;2.25;1.10;;;10.50;93.50;;;;;;10363701;28;20033;-73
2022/04/08 12:23:56;;;;;;;3.13;1.40;;;10.50;93.50;;;;;;10362060;28;20096;-72
2022/04/08 12:29:14;;;;;;;2.08;0.90;;;10.50;93.60;;;;;;10360269;28;20044;-72
2022/04/08 12:34:15;;;;;;;4.35;1.20;;;10.60;93.50;;;;;;10357642;28;20022;-71
2022/04/08 12:39:17;;;;;;;4.18;1.45;;;10.80;93.60;;;;;;10354438;28;20049;-69
2022/04/08 12:44:18;;;;;;;3.33;1.00;;;10.80;93.40;;;;;;10355397;28;20038;-71
2022/04/08 12:49:19;;;;;;;2.53;1.13;;;10.80;93.40;;;;;;10358685;28;20030;-70
2022/04/08 12:54:20;;;;;;;1.90;1.10;;;10.80;93.30;;;;;;10339362;28;20042;-73
2022/04/08 12:59:20;;;;;;;3.35;1.27;;;10.90;93.20;;;;;;10338948;28;20103;-74
2022/04/08 13:04:21;;;;;;;5.60;1.25;;;11.00;93.20;;;;;;10355077;28;20128;-71
2022/04/08 13:09:22;;;;;;;3.15;1.00;;;11.00;93.20;;;;;;10357776;28;20030;-73
2022/04/08 13:14:23;;;;;;;1.63;0.98;;;11.10;93.20;;;;;;10349407;28;20030;-72
2022/04/08 13:19:25;;;;;;;1.90;1.00;;;11.10;93.10;;;;;;10357240;28;20025;-70
2022/04/08 13:24:26;;;;;;;2.65;1.17;;;11.00;93.20;;;;;;10361813;28;20090;-74
2022/04/08 13:29:27;;;;;;;3.28;1.25;;;11.00;92.60;;;;;;10348823;28;20079;-70
2022/04/08 13:34:29;;;;;;;2.40;1.30;;;10.60;92.20;;;;;;10351028;28;20029;-68
2022/04/08 13:39:29;;;;;;;14.25;2.58;;;10.50;92.10;;;;;;10357202;28;20026;-68
2022/04/08 13:44:31;;;;;;;4.20;1.55;;;10.30;91.70;;;;;;10357682;28;20225;-71
2022/04/08 13:49:32;;;;;;;1.95;0.80;;;10.20;91.70;;;;;;10354759;28;20037;-67
2022/04/08 13:54:33;;;;;;;4.03;1.10;;;10.20;91.60;;;;;;10356800;28;20060;-69
2022/04/08 13:59:33;;;;;;;1.80;0.80;;;10.30;91.50;;;;;;10348882;28;20418;-70
2022/04/08 14:04:34;;;;;;;2.90;1.25;;;10.20;91.30;;;;;;10361218;28;20038;-68
2022/04/08 14:09:35;;;;;;;2.90;0.85;;;10.10;91.20;;;;;;10364092;28;20038;-69
2022/04/08 14:14:36;;;;;;;1.92;0.75;;;10.00;91.10;;;;;;10358210;28;20475;-66
2022/04/08 14:19:37;;;;;;;4.57;1.00;;;10.10;91.10;;;;;;10345818;28;20022;-69
2022/04/08 14:24:38;;;;;;;2.78;0.80;;;10.00;91.00;;;;;;10357308;28;20366;-70
2022/04/08 14:29:39;;;;;;;4.15;0.90;;;9.90;90.80;;;;;;10350861;28;20029;-67
2022/04/08 14:34:39;;;;;;;1.90;0.80;;;9.90;90.60;;;;;;10351410;28;20120;-70
2022/04/08 14:39:40;;;;;;;4.60;1.17;;;10.00;90.60;;;;;;10350860;28;20038;-70
2022/04/08 14:44:41;;;;;;;4.22;1.10;;;10.30;90.30;;;;;;10352233;28;20392;-69
2022/04/08 14:49:42;;;;;;;2.83;1.02;;;10.60;90.00;;;;;;10351243;28;20026;-69
2022/04/08 14:54:43;;;;;;;3.40;1.35;;;11.00;89.30;;;;;;10350914;28;20030;-71
2022/04/08 14:59:45;;;;;;;4.28;0.85;;;11.00;88.50;;;;;;10353162;28;20014;-70
2022/04/08 15:04:46;;;;;;;3.40;1.00;;;10.60;87.40;;;;;;10354782;28;20108;-70
2022/04/08 15:09:48;;;;;;;2.67;0.63;;;10.50;87.90;;;;;;10350429;28;20025;-70
2022/04/08 15:14:49;;;;;;;7.95;1.05;;;10.50;87.20;;;;;;10342835;28;20052;-64
2022/04/08 15:19:50;;;;;;;3.63;0.95;;;10.30;86.60;;;;;;10353868;28;20317;-67
2022/04/08 15:24:50;;;;;;;4.47;1.02;;;10.30;86.10;;;;;;10361330;28;20374;-65
2022/04/08 15:29:51;;;;;;;3.75;1.13;;;10.20;87.10;;;;;;10365295;28;20501;-70
2022/04/08 15:34:52;;;;;;;3.33;1.10;;;10.30;86.80;;;;;;10366127;28;20046;-69
2022/04/08 15:39:53;;;;;;;2.63;0.85;;;10.30;86.30;;;;;;10353048;28;20026;-70
2022/04/08 15:44:53;;;;;;;7.18;1.08;;;10.20;86.50;;;;;;10349890;28;20040;-70
2022/04/08 15:49:54;;;;;;;6.80;1.00;;;10.10;86.00;;;;;;10364148;28;20057;-71
2022/04/08 15:54:55;;;;;;;8.23;1.83;;;10.10;86.20;;;;;;10361977;28;20030;-72
2022/04/08 15:59:55;;;;;;;6.05;0.90;;;10.00;84.80;;;;;;10353494;28;20026;-69
2022/04/08 16:04:56;;;;;;;3.67;0.80;;;9.90;84.70;;;;;;10363121;28;20386;-68
2022/04/08 16:09:57;;;;;;;5.43;0.95;;;9.80;84.60;;;;;;10364899;28;20030;-70
2022/04/08 16:15:00;;;;;;;5.60;0.77;;;9.70;85.20;;;;;;10356017;28;20072;-62
2022/04/08 16:20:00;;;;;;;1.95;0.80;;;9.70;85.00;;;;;;10351177;28;20461;-69
2022/04/08 16:25:02;;;;;;;4.15;0.82;;;9.60;85.40;;;;;;10358514;28;20045;-73
2022/04/08 16:30:04;;;;;;;14.70;1.38;;;9.00;85.60;;;;;;10365133;28;20029;-69
2022/04/08 16:35:05;;;;;;;9.38;1.63;;;9.40;86.00;;;;;;10365546;28;20029;-76
2022/04/08 16:40:07;;;;;;;5.03;1.10;;;9.40;86.20;;;;;;10362738;28;20362;-65
2022/04/08 16:45:09;;;;;;;4.20;1.05;;;9.30;86.30;;;;;;10356902;28;20382;-67
2022/04/08 16:50:11;;;;;;;13.43;2.15;;;9.30;86.70;;;;;;10359352;28;20022;-69
2022/04/08 16:55:15;;;;;;;9.90;1.98;;;9.30;86.50;;;;;;10353052;28;20038;-70
2022/04/08 17:00:17;;;;;;;10.07;1.70;;;9.50;87.80;;;;;;10342635;28;20034;-74
2022/04/08 17:05:18;;;;;;;9.98;1.75;;;9.70;88.00;;;;;;10364820;28;20104;-73
2022/04/08 17:10:18;;;;;;;12.95;1.90;;;9.80;88.20;;;;;;10359941;28;20109;-75
2022/04/08 17:15:19;;;;;;;8.15;1.40;;;9.90;88.40;;;;;;10354488;28;20025;-70
2022/04/08 17:20:20;;;;;;;3.10;1.20;;;10.10;88.80;;;;;;10358138;28;20045;-72
2022/04/08 17:25:20;;;;;;;4.20;1.02;;;10.40;88.60;;;;;;10356924;28;20521;-72
2022/04/08 17:30:21;;;;;;;5.50;0.93;;;9.80;88.10;;;;;;10354169;28;20030;-76
2022/04/08 17:35:22;;;;;;;4.38;0.90;;;9.70;89.40;;;;;;10353377;28;20118;-79
2022/04/08 17:40:25;;;;;;;6.70;1.25;;;9.80;90.10;;;;;;10359210;28;20519;-77
2022/04/08 17:45:26;;;;;;;6.40;1.35;;;9.80;90.30;;;;;;10355113;28;20042;-77
2022/04/08 17:50:28;;;;;;;4.43;1.00;;;9.90;90.40;;;;;;10364676;28;20397;-79
2022/04/08 17:55:30;;;;;;;4.55;1.20;;;9.90;90.40;;;;;;10359560;28;20401;-79
2022/04/08 18:00:31;;;;;;;4.82;0.93;;;10.00;90.50;;;;;;10352335;28;20460;-67
2022/04/08 18:05:31;;;;;;;1.80;0.65;;;10.00;90.60;;;;;;10326235;28;20045;-79
2022/04/08 18:10:32;;;;;;;5.57;0.98;;;9.90;90.70;;;;;;10353312;28;20465;-75
2022/04/08 18:15:33;;;;;;;3.03;1.23;;;10.00;90.70;;;;;;10339292;28;20029;-76
2022/04/08 18:20:35;;;;;;;7.43;0.90;;;9.90;90.80;;;;;;10351781;28;20041;-74
2022/04/08 18:25:35;;;;;;;2.97;0.70;;;9.90;90.80;;;;;;10365051;28;20068;-78
2022/04/08 18:30:36;;;;;;;3.03;1.00;;;10.10;90.90;;;;;;10354002;28;20032;-75
2022/04/08 18:35:39;;;;;;;3.47;0.88;;;9.90;90.90;;;;;;10358003;28;20104;-79
2022/04/08 18:40:40;;;;;;;4.00;0.88;;;9.90;91.00;;;;;;10357501;28;20101;-79
2022/04/08 18:45:41;;;;;;;1.30;0.70;;;9.90;91.00;;;;;;10359152;28;20502;-77
2022/04/08 18:50:42;;;;;;;3.40;0.80;;;9.90;91.10;;;;;;10355556;28;20149;-71
2022/04/08 18:55:44;;;;;;;1.92;0.90;;;9.90;91.20;;;;;;10361844;28;20030;-74
2022/04/08 19:00:45;;;;;;;4.47;1.08;;;9.90;91.20;;;;;;10369417;28;20403;-75
2022/04/08 19:05:45;;;;;;;2.40;0.80;;;9.80;91.20;;;;;;10360392;28;20069;-67
2022/04/08 19:10:46;;;;;;;3.67;1.10;;;9.80;91.20;;;;;;10362233;28;20025;-75
2022/04/08 19:15:47;;;;;;;4.25;1.10;;;9.80;91.30;;;;;;10350350;28;20496;-75
2022/04/08 19:20:48;;;;;;;4.78;1.10;;;9.80;91.30;;;;;;10360034;28;20029;-70
2022/04/08 19:25:49;;;;;;;4.10;1.20;;;9.80;91.30;;;;;;10369374;28;20056;-72
2022/04/08 19:30:49;;;;;;;4.60;1.20;;;9.70;91.60;;;;;;10356257;28;20481;-72
2022/04/08 19:35:51;;;;;;;7.07;1.15;;;9.70;91.40;;;;;;10346352;28;20041;-70
2022/04/08 19:40:52;;;;;;;3.58;1.08;;;9.70;91.40;;;;;;10341290;28;20018;-73
2022/04/08 19:45:52;;;;;;;4.93;1.17;;;9.70;91.40;;;;;;10349910;28;20085;-74
2022/04/08 19:50:53;;;;;;;5.05;1.55;;;9.70;91.50;;;;;;10345794;28;20114;-70
2022/04/08 19:55:55;;;;;;;2.92;1.02;;;9.60;91.40;;;;;;10360357;28;20030;-73
2022/04/08 20:00:56;;;;;;;2.53;1.10;;;9.70;91.50;;;;;;10372507;28;20018;-74
2022/04/08 20:05:57;;;;;;;2.83;0.90;;;9.60;91.50;;;;;;10369813;28;20047;-72
2022/04/08 20:10:58;;;;;;;3.42;1.00;;;9.60;91.50;;;;;;10358348;28;20032;-73
2022/04/08 20:15:59;;;;;;;3.25;1.30;;;9.80;91.60;;;;;;10367725;28;20519;-74
2022/04/08 20:21:00;;;;;;;5.13;1.30;;;9.60;91.60;;;;;;10366377;28;20515;-69
2022/04/08 20:26:00;;;;;;;2.97;0.90;;;9.50;91.60;;;;;;10367493;28;20069;-64
2022/04/08 20:31:02;;;;;;;5.07;1.30;;;10.20;91.80;;;;;;10338570;28;20056;-68
2022/04/08 20:36:08;;;;;;;4.68;1.45;;;9.70;91.70;;;;;;10328585;28;20045;-71
2022/04/08 20:41:09;;;;;;;4.72;1.40;;;9.50;91.70;;;;;;10337144;28;20435;-67
2022/04/08 20:46:10;;;;;;;5.22;1.40;;;9.50;91.70;;;;;;10342976;28;20573;-67
2022/04/08 20:51:11;;;;;;;3.17;1.52;;;9.50;91.70;;;;;;10366005;28;20084;-67
2022/04/08 20:56:16;;;;;;;2.90;1.50;;;9.40;91.70;;;;;;10358672;28;20026;-65
2022/04/08 21:01:18;;;;;;;3.22;1.67;;;9.40;91.70;;;;;;10353932;28;20125;-65
2022/04/08 21:06:18;;;;;;;2.45;1.50;;;9.40;91.70;;;;;;10352772;28;20107;-64
2022/04/08 21:11:19;;;;;;;4.50;1.60;;;9.40;91.80;;;;;;10356439;28;20040;-65
2022/04/08 21:16:20;;;;;;;4.82;1.77;;;9.40;91.80;;;;;;10356611;28;20113;-67
2022/04/08 21:21:20;;;;;;;3.58;1.60;;;9.40;91.80;;;;;;10359975;28;20132;-68
2022/04/08 21:26:21;;;;;;;4.22;1.55;;;9.30;91.80;;;;;;10361226;28;20508;-75
2022/04/08 21:31:22;;;;;;;4.97;1.75;;;9.30;91.80;;;;;;10342451;28;20034;-72
2022/04/08 21:36:23;;;;;;;4.65;1.40;;;9.30;91.80;;;;;;10338016;28;20384;-71
2022/04/08 21:41:23;;;;;;;6.97;1.35;;;9.30;91.80;;;;;;10337713;28;20030;-75
2022/04/08 21:46:24;;;;;;;6.72;1.48;;;9.30;91.80;;;;;;10344741;28;20034;-73
2022/04/08 21:51:25;;;;;;;4.68;1.20;;;9.30;91.80;;;;;;10339645;28;20447;-68
2022/04/08 21:56:25;;;;;;;4.45;1.30;;;9.30;91.80;;;;;;10338560;28;20408;-74
2022/04/08 22:01:26;;;;;;;6.15;1.30;;;9.20;91.80;;;;;;10329924;28;20068;-72
2022/04/08 22:06:27;;;;;;;5.85;1.30;;;9.30;91.90;;;;;;10338826;28;20319;-72
2022/04/08 22:11:28;;;;;;;7.40;1.60;;;9.20;91.80;;;;;;10366278;28;20541;-74
2022/04/08 22:16:29;;;;;;;3.50;1.10;;;9.20;91.80;;;;;;10359891;28;20037;-68
2022/04/08 22:21:29;;;;;;;3.00;1.00;;;9.10;91.80;;;;;;10357830;28;20027;-73
2022/04/08 22:26:30;;;;;;;6.35;1.38;;;9.10;92.10;;;;;;10369008;28;20546;-72
2022/04/08 22:31:31;;;;;;;2.42;0.75;;;9.10;91.80;;;;;;10361987;28;20026;-63
2022/04/08 22:36:31;;;;;;;5.72;1.65;;;9.10;91.80;;;;;;10366114;28;20374;-71
2022/04/08 22:41:32;;;;;;;2.92;0.85;;;9.10;91.90;;;;;;10375190;28;20042;-63
2022/04/08 22:46:33;;;;;;;3.33;1.00;;;9.10;91.90;;;;;;10365412;28;20029;-73
2022/04/08 22:51:34;;;;;;;4.68;1.23;;;9.20;91.90;;;;;;10374916;28;20022;-72
2022/04/08 22:56:35;;;;;;;2.80;1.17;;;9.10;91.90;;;;;;10365775;28;20023;-69
2022/04/08 23:01:35;;;;;;;5.88;1.10;;;9.00;91.90;;;;;;10370774;28;20034;-64
2022/04/08 23:06:36;;;;;;;3.63;1.60;;;9.00;91.90;;;;;;10368342;28;20018;-73
2022/04/08 23:11:37;;;;;;;5.03;1.00;;;9.10;91.90;;;;;;10374703;28;20072;-61
2022/04/08 23:16:38;;;;;;;2.85;0.80;;;9.00;91.90;;;;;;10374584;28;20539;-72
2022/04/08 23:21:38;;;;;;;5.28;1.17;;;9.10;91.90;;;;;;10376506;28;20042;-75
2022/04/08 23:26:39;;;;;;;4.07;1.30;;;9.00;91.90;;;;;;10376653;28;20049;-66
2022/04/08 23:31:40;;;;;;;4.32;1.13;;;9.00;91.90;;;;;;10362065;28;20536;-76
2022/04/08 23:36:41;;;;;;;3.72;1.00;;;9.00;91.90;;;;;;10373478;28;20038;-68
2022/04/08 23:41:42;;;;;;;2.55;1.00;;;9.00;91.90;;;;;;10368256;28;20042;-73
2022/04/08 23:46:42;;;;;;;2.20;0.60;;;8.90;91.90;;;;;;10358390;28;20033;-73
2022/04/08 23:51:43;;;;;;;2.03;0.68;;;8.90;91.90;;;;;;10365034;28;20089;-68
2022/04/08 23:56:44;;;;;;;6.13;1.00;;;8.90;91.90;;;;;;10353637;28;20491;-76
